sensor_id;sensor_type;location;lat;lon;timestamp;pressure;altitude;pressure_sealevel;temperature;humidity
53647;BME280;39550;52.230;5.194;2022-09-29T00:00:50;99879.81;;;10.43;76.23
53647;BME280;39550;52.230;5.194;2022-09-29T00:03:16;99881.53;;;10.44;75.99
53647;BME280;39550;52.230;5.194;2022-09-29T00:05:53;99881.53;;;10.44;75.86
53647;BME280;39550;52.230;5.194;2022-09-29T00:08:20;99867.81;;;10.39;75.84
53647;BME280;39550;52.230;5.194;2022-09-29T00:10:46;99875.53;;;10.42;75.87
53647;BME280;39550;52.230;5.194;2022-09-29T00:13:12;99870.41;;;10.39;76.27
53647;BME280;39550;52.230;5.194;2022-09-29T00:15:38;99873.81;;;10.39;76.02
53647;BME280;39550;52.230;5.194;2022-09-29T00:18:03;99874.69;;;10.40;76.20
53647;BME280;39550;52.230;5.194;2022-09-29T00:20:29;99879.84;;;10.40;76.09
53647;BME280;39550;52.230;5.194;2022-09-29T00:22:54;99872.13;;;10.38;75.90
53647;BME280;39550;52.230;5.194;2022-09-29T00:25:19;99878.13;;;10.39;75.87
53647;BME280;39550;52.230;5.194;2022-09-29T00:27:45;99872.13;;;10.37;75.72
53647;BME280;39550;52.230;5.194;2022-09-29T00:30:11;99874.69;;;10.37;75.78
53647;BME280;39550;52.230;5.194;2022-09-29T00:32:36;99865.25;;;10.37;75.96
53647;BME280;39550;52.230;5.194;2022-09-29T00:35:02;99866.09;;;10.38;75.75
53647;BME280;39550;52.230;5.194;2022-09-29T00:37:27;99867.84;;;10.36;75.79
53647;BME280;39550;52.230;5.194;2022-09-29T00:39:52;99867.84;;;10.36;75.38
53647;BME280;39550;52.230;5.194;2022-09-29T00:42:19;99872.13;;;10.35;75.58
53647;BME280;39550;52.230;5.194;2022-09-29T00:45:40;99868.69;;;10.33;75.37
53647;BME280;39550;52.230;5.194;2022-09-29T00:48:08;99871.28;;;10.32;76.03
53647;BME280;39550;52.230;5.194;2022-09-29T00:50:42;99870.41;;;10.31;75.51
53647;BME280;39550;52.230;5.194;2022-09-29T00:53:10;99871.28;;;10.32;75.79
53647;BME280;39550;52.230;5.194;2022-09-29T00:55:50;99866.13;;;10.32;75.49
53647;BME280;39550;52.230;5.194;2022-09-29T00:58:43;99873.00;;;10.30;75.57
53647;BME280;39550;52.230;5.194;2022-09-29T01:01:07;99879.88;;;10.28;75.88
53647;BME280;39550;52.230;5.194;2022-09-29T01:03:36;99869.59;;;10.28;75.39
53647;BME280;39550;52.230;5.194;2022-09-29T01:06:07;99868.72;;;10.30;75.51
53647;BME280;39550;52.230;5.194;2022-09-29T01:08:59;99867.00;;;10.29;75.27
53647;BME280;39550;52.230;5.194;2022-09-29T01:11:25;99860.16;;;10.27;75.76
53647;BME280;39550;52.230;5.194;2022-09-29T01:13:51;99866.16;;;10.26;75.56
53647;BME280;39550;52.230;5.194;2022-09-29T01:16:17;99859.31;;;10.25;75.25
53647;BME280;39550;52.230;5.194;2022-09-29T01:18:43;99866.16;;;10.26;75.61
53647;BME280;39550;52.230;5.194;2022-09-29T01:26:49;99870.47;;;10.25;74.97
53647;BME280;39550;52.230;5.194;2022-09-29T01:32:11;99866.19;;;10.22;75.27
53647;BME280;39550;52.230;5.194;2022-09-29T01:37:39;99869.63;;;10.21;75.36
53647;BME280;39550;52.230;5.194;2022-09-29T01:40:14;99873.06;;;10.22;75.44
53647;BME280;39550;52.230;5.194;2022-09-29T01:42:54;99870.50;;;10.20;75.19
53647;BME280;39550;52.230;5.194;2022-09-29T01:45:30;99877.34;;;10.20;75.31
53647;BME280;39550;52.230;5.194;2022-09-29T01:48:04;99872.22;;;10.18;75.10
53647;BME280;39550;52.230;5.194;2022-09-29T01:50:41;99882.50;;;10.18;75.25
53647;BME280;39550;52.230;5.194;2022-09-29T01:53:22;99887.69;;;10.17;75.18
53647;BME280;39550;52.230;5.194;2022-09-29T01:55:53;99888.53;;;10.14;75.39
53647;BME280;39550;52.230;5.194;2022-09-29T01:58:29;99885.97;;;10.16;74.90
53647;BME280;39550;52.230;5.194;2022-09-29T02:00:59;99883.38;;;10.16;74.65
53647;BME280;39550;52.230;5.194;2022-09-29T02:03:34;99876.50;;;10.15;75.06
53647;BME280;39550;52.230;5.194;2022-09-29T02:06:03;99879.13;;;10.12;74.74
53647;BME280;39550;52.230;5.194;2022-09-29T02:08:39;99881.69;;;10.13;74.95
53647;BME280;39550;52.230;5.194;2022-09-29T02:11:11;99887.69;;;10.14;75.26
53647;BME280;39550;52.230;5.194;2022-09-29T02:14:38;99880.00;;;10.12;74.39
53647;BME280;39550;52.230;5.194;2022-09-29T02:16:37;99888.56;;;10.11;74.58
53647;BME280;39550;52.230;5.194;2022-09-29T02:19:09;99880.84;;;10.11;74.71
53647;BME280;39550;52.230;5.194;2022-09-29T02:21:37;99881.69;;;10.10;74.72
53647;BME280;39550;52.230;5.194;2022-09-29T02:24:03;99871.44;;;10.07;74.92
53647;BME280;39550;52.230;5.194;2022-09-29T02:26:32;99879.97;;;10.09;74.90
53647;BME280;39550;52.230;5.194;2022-09-29T02:29:00;99886.00;;;10.10;74.98
53647;BME280;39550;52.230;5.194;2022-09-29T02:31:25;99885.13;;;10.09;74.34
53647;BME280;39550;52.230;5.194;2022-09-29T02:33:50;99883.44;;;10.08;74.81
53647;BME280;39550;52.230;5.194;2022-09-29T02:36:17;99880.00;;;10.08;74.66
53647;BME280;39550;52.230;5.194;2022-09-29T02:38:55;99886.03;;;10.08;74.37
53647;BME280;39550;52.230;5.194;2022-09-29T02:41:31;99886.91;;;10.04;74.36
53647;BME280;39550;52.230;5.194;2022-09-29T02:49:54;99884.34;;;10.02;74.64
53647;BME280;39550;52.230;5.194;2022-09-29T02:52:32;99886.88;;;10.01;74.72
53647;BME280;39550;52.230;5.194;2022-09-29T02:55:13;99883.47;;;10.02;74.59
53647;BME280;39550;52.230;5.194;2022-09-29T03:00:14;99880.91;;;10.00;74.31
53647;BME280;39550;52.230;5.194;2022-09-29T03:02:42;99886.03;;;10.00;74.25
53647;BME280;39550;52.230;5.194;2022-09-29T03:05:10;99880.06;;;10.00;74.34
53647;BME280;39550;52.230;5.194;2022-09-29T03:07:38;99878.34;;;9.96;74.70
53647;BME280;39550;52.230;5.194;2022-09-29T03:10:05;99880.03;;;9.97;74.14
53647;BME280;39550;52.230;5.194;2022-09-29T03:12:30;99878.34;;;9.96;74.33
53647;BME280;39550;52.230;5.194;2022-09-29T03:14:56;99885.19;;;9.97;74.32
53647;BME280;39550;52.230;5.194;2022-09-29T03:17:21;99883.50;;;9.96;74.24
53647;BME280;39550;52.230;5.194;2022-09-29T03:19:46;99891.22;;;9.93;74.53
53647;BME280;39550;52.230;5.194;2022-09-29T03:22:12;99887.78;;;9.95;74.33
53647;BME280;39550;52.230;5.194;2022-09-29T03:24:37;99890.38;;;9.94;74.52
53647;BME280;39550;52.230;5.194;2022-09-29T03:27:02;99888.66;;;9.93;74.03
53647;BME280;39550;52.230;5.194;2022-09-29T03:29:28;99887.78;;;9.94;74.07
53647;BME280;39550;52.230;5.194;2022-09-29T03:31:54;99888.66;;;9.93;74.45
53647;BME280;39550;52.230;5.194;2022-09-29T03:34:19;99886.97;;;9.92;74.10
53647;BME280;39550;52.230;5.194;2022-09-29T03:36:44;99890.38;;;9.91;73.86
53647;BME280;39550;52.230;5.194;2022-09-29T03:39:09;99887.81;;;9.91;74.06
53647;BME280;39550;52.230;5.194;2022-09-29T03:41:35;99883.53;;;9.89;74.27
53647;BME280;39550;52.230;5.194;2022-09-29T03:44:00;99886.97;;;9.88;73.82
53647;BME280;39550;52.230;5.194;2022-09-29T03:46:26;99885.25;;;9.87;74.08
53647;BME280;39550;52.230;5.194;2022-09-29T03:48:51;99890.41;;;9.87;74.12
53647;BME280;39550;52.230;5.194;2022-09-29T03:51:16;99894.69;;;9.87;74.20
53647;BME280;39550;52.230;5.194;2022-09-29T03:53:42;99898.97;;;9.86;74.13
53647;BME280;39550;52.230;5.194;2022-09-29T03:56:07;99894.72;;;9.81;73.61
53647;BME280;39550;52.230;5.194;2022-09-29T03:58:33;99901.56;;;9.83;73.97
53647;BME280;39550;52.230;5.194;2022-09-29T04:00:58;99902.44;;;9.82;73.81
53647;BME280;39550;52.230;5.194;2022-09-29T04:03:25;99897.31;;;9.79;73.99
53647;BME280;39550;52.230;5.194;2022-09-29T04:05:50;99905.84;;;9.81;73.84
53647;BME280;39550;52.230;5.194;2022-09-29T04:08:15;99907.59;;;9.79;73.87
53647;BME280;39550;52.230;5.194;2022-09-29T04:10:41;99905.84;;;9.81;73.62
53647;BME280;39550;52.230;5.194;2022-09-29T04:13:07;99903.28;;;9.80;73.69
53647;BME280;39550;52.230;5.194;2022-09-29T04:15:33;99907.59;;;9.79;73.79
53647;BME280;39550;52.230;5.194;2022-09-29T04:17:58;99912.75;;;9.78;73.57
53647;BME280;39550;52.230;5.194;2022-09-29T04:20:24;99918.75;;;9.78;73.88
53647;BME280;39550;52.230;5.194;2022-09-29T04:22:50;99923.06;;;9.76;73.66
53647;BME280;39550;52.230;5.194;2022-09-29T04:25:16;99917.91;;;9.76;73.53
53647;BME280;39550;52.230;5.194;2022-09-29T04:27:41;99925.63;;;9.76;73.30
53647;BME280;39550;52.230;5.194;2022-09-29T04:30:07;99923.91;;;9.75;73.76
53647;BME280;39550;52.230;5.194;2022-09-29T04:32:33;99923.91;;;9.74;73.60
53647;BME280;39550;52.230;5.194;2022-09-29T04:34:58;99923.94;;;9.72;73.32
53647;BME280;39550;52.230;5.194;2022-09-29T04:37:24;99934.22;;;9.72;73.42
53647;BME280;39550;52.230;5.194;2022-09-29T04:39:49;99941.94;;;9.72;73.39
53647;BME280;39550;52.230;5.194;2022-09-29T04:42:16;99931.66;;;9.72;73.19
53647;BME280;39550;52.230;5.194;2022-09-29T04:44:42;99932.50;;;9.73;73.66
53647;BME280;39550;52.230;5.194;2022-09-29T04:47:07;99935.91;;;9.70;73.53
53647;BME280;39550;52.230;5.194;2022-09-29T04:49:32;99941.91;;;9.69;73.73
53647;BME280;39550;52.230;5.194;2022-09-29T04:51:58;99943.63;;;9.70;73.51
53647;BME280;39550;52.230;5.194;2022-09-29T04:54:23;99945.38;;;9.68;73.83
53647;BME280;39550;52.230;5.194;2022-09-29T04:56:49;99945.38;;;9.68;73.08
53647;BME280;39550;52.230;5.194;2022-09-29T04:59:14;99940.25;;;9.66;73.01
53647;BME280;39550;52.230;5.194;2022-09-29T05:01:42;99941.09;;;9.67;73.16
53647;BME280;39550;52.230;5.194;2022-09-29T05:04:07;99941.09;;;9.65;73.42
53647;BME280;39550;52.230;5.194;2022-09-29T05:06:33;99940.22;;;9.65;73.29
53647;BME280;39550;52.230;5.194;2022-09-29T05:09:03;99941.94;;;9.64;73.15
53647;BME280;39550;52.230;5.194;2022-09-29T05:11:29;99949.66;;;9.64;73.24
53647;BME280;39550;52.230;5.194;2022-09-29T05:13:54;99950.50;;;9.65;73.35
53647;BME280;39550;52.230;5.194;2022-09-29T05:16:19;99952.25;;;9.63;73.45
53647;BME280;39550;52.230;5.194;2022-09-29T05:18:45;99960.81;;;9.62;73.55
53647;BME280;39550;52.230;5.194;2022-09-29T05:21:10;99953.94;;;9.61;73.53
53647;BME280;39550;52.230;5.194;2022-09-29T05:23:35;99959.09;;;9.61;73.50
53647;BME280;39550;52.230;5.194;2022-09-29T05:26:03;99960.81;;;9.59;73.52
53647;BME280;39550;52.230;5.194;2022-09-29T05:28:28;99959.09;;;9.58;72.81
53647;BME280;39550;52.230;5.194;2022-09-29T05:30:53;99961.69;;;9.58;72.79
53647;BME280;39550;52.230;5.194;2022-09-29T05:33:19;99965.13;;;9.58;72.79
53647;BME280;39550;52.230;5.194;2022-09-29T05:35:44;99965.97;;;9.57;72.92
53647;BME280;39550;52.230;5.194;2022-09-29T05:38:09;99972.81;;;9.57;73.52
53647;BME280;39550;52.230;5.194;2022-09-29T05:40:35;99971.97;;;9.56;72.58
53647;BME280;39550;52.230;5.194;2022-09-29T05:43:01;99972.81;;;9.57;73.10
53647;BME280;39550;52.230;5.194;2022-09-29T05:45:27;99977.97;;;9.57;72.65
53647;BME280;39550;52.230;5.194;2022-09-29T05:47:53;99977.97;;;9.57;72.53
53647;BME280;39550;52.230;5.194;2022-09-29T05:50:19;99972.81;;;9.53;72.62
53647;BME280;39550;52.230;5.194;2022-09-29T05:52:44;99988.25;;;9.55;72.74
53647;BME280;39550;52.230;5.194;2022-09-29T05:55:13;99983.13;;;9.53;72.94
53647;BME280;39550;52.230;5.194;2022-09-29T05:57:38;99986.53;;;9.52;73.14
53647;BME280;39550;52.230;5.194;2022-09-29T06:00:04;99985.69;;;9.50;72.52
53647;BME280;39550;52.230;5.194;2022-09-29T06:02:30;99983.97;;;9.51;72.51
53647;BME280;39550;52.230;5.194;2022-09-29T06:04:56;99984.84;;;9.51;72.93
53647;BME280;39550;52.230;5.194;2022-09-29T06:07:22;99991.69;;;9.52;72.70
53647;BME280;39550;52.230;5.194;2022-09-29T06:09:47;99990.84;;;9.50;72.61
53647;BME280;39550;52.230;5.194;2022-09-29T06:12:12;99984.81;;;9.48;72.69
53647;BME280;39550;52.230;5.194;2022-09-29T06:14:37;99993.41;;;9.50;72.72
53647;BME280;39550;52.230;5.194;2022-09-29T06:17:03;99996.84;;;9.49;72.37
53647;BME280;39550;52.230;5.194;2022-09-29T06:19:28;99993.41;;;9.50;72.87
53647;BME280;39550;52.230;5.194;2022-09-29T06:21:53;99992.56;;;9.50;72.88
53647;BME280;39550;52.230;5.194;2022-09-29T06:24:19;99995.13;;;9.48;72.96
53647;BME280;39550;52.230;5.194;2022-09-29T06:26:44;99998.56;;;9.47;72.90
53647;BME280;39550;52.230;5.194;2022-09-29T06:29:09;100000.28;;;9.45;72.62
53647;BME280;39550;52.230;5.194;2022-09-29T06:31:35;100000.28;;;9.42;72.48
53647;BME280;39550;52.230;5.194;2022-09-29T06:34:03;100002.00;;;9.43;71.94
53647;BME280;39550;52.230;5.194;2022-09-29T06:36:31;100000.28;;;9.45;72.18
53647;BME280;39550;52.230;5.194;2022-09-29T06:39:16;100000.28;;;9.45;72.11
53647;BME280;39550;52.230;5.194;2022-09-29T06:41:42;100011.44;;;9.47;72.29
53647;BME280;39550;52.230;5.194;2022-09-29T06:44:16;100019.16;;;9.44;72.12
53647;BME280;39550;52.230;5.194;2022-09-29T06:46:42;100017.41;;;9.49;72.22
53647;BME280;39550;52.230;5.194;2022-09-29T06:49:07;100023.44;;;9.50;72.21
53647;BME280;39550;52.230;5.194;2022-09-29T06:51:34;100030.25;;;9.51;72.03
53647;BME280;39550;52.230;5.194;2022-09-29T06:54:00;100029.44;;;9.47;72.04
53647;BME280;39550;52.230;5.194;2022-09-29T06:56:25;100029.44;;;9.44;72.54
53647;BME280;39550;52.230;5.194;2022-09-29T06:58:50;100025.13;;;9.48;71.77
53647;BME280;39550;52.230;5.194;2022-09-29T07:01:16;100024.28;;;9.47;72.18
53647;BME280;39550;52.230;5.194;2022-09-29T07:03:41;100038.84;;;9.51;71.64
53647;BME280;39550;52.230;5.194;2022-09-29T07:06:08;100035.41;;;9.52;72.37
53647;BME280;39550;52.230;5.194;2022-09-29T07:08:34;100036.28;;;9.51;72.41
53647;BME280;39550;52.230;5.194;2022-09-29T07:11:01;100040.56;;;9.52;71.94
53647;BME280;39550;52.230;5.194;2022-09-29T07:13:27;100037.97;;;9.52;72.16
53647;BME280;39550;52.230;5.194;2022-09-29T07:15:53;100036.28;;;9.51;72.32
53647;BME280;39550;52.230;5.194;2022-09-29T07:18:19;100040.56;;;9.51;71.99
53647;BME280;39550;52.230;5.194;2022-09-29T07:20:44;100043.13;;;9.52;72.49
53647;BME280;39550;52.230;5.194;2022-09-29T07:23:09;100043.13;;;9.52;72.13
53647;BME280;39550;52.230;5.194;2022-09-29T07:25:35;100041.44;;;9.53;71.97
53647;BME280;39550;52.230;5.194;2022-09-29T07:28:00;100042.28;;;9.52;72.44
53647;BME280;39550;52.230;5.194;2022-09-29T07:30:26;100044.00;;;9.50;72.40
53647;BME280;39550;52.230;5.194;2022-09-29T07:32:53;100044.00;;;9.51;71.90
53647;BME280;39550;52.230;5.194;2022-09-29T07:35:20;100050.84;;;9.52;72.57
53647;BME280;39550;52.230;5.194;2022-09-29T07:37:52;100053.41;;;9.52;72.47
53647;BME280;39550;52.230;5.194;2022-09-29T07:40:19;100050.00;;;9.50;72.66
53647;BME280;39550;52.230;5.194;2022-09-29T07:42:45;100058.56;;;9.52;72.81
53647;BME280;39550;52.230;5.194;2022-09-29T07:45:11;100062.00;;;9.54;72.85
53647;BME280;39550;52.230;5.194;2022-09-29T07:47:36;100057.69;;;9.57;72.22
53647;BME280;39550;52.230;5.194;2022-09-29T07:50:02;100068.84;;;9.59;72.63
53647;BME280;39550;52.230;5.194;2022-09-29T07:52:27;100071.44;;;9.59;72.13
53647;BME280;39550;52.230;5.194;2022-09-29T07:54:53;100080.88;;;9.60;72.61
53647;BME280;39550;52.230;5.194;2022-09-29T07:57:18;100081.72;;;9.59;72.24
53647;BME280;39550;52.230;5.194;2022-09-29T07:59:44;100082.56;;;9.61;72.25
53647;BME280;39550;52.230;5.194;2022-09-29T08:02:09;100087.69;;;9.61;72.27
53647;BME280;39550;52.230;5.194;2022-09-29T08:04:35;100088.59;;;9.61;72.59
53647;BME280;39550;52.230;5.194;2022-09-29T08:07:00;100088.56;;;9.63;72.61
53647;BME280;39550;52.230;5.194;2022-09-29T08:09:25;100094.56;;;9.65;72.44
53647;BME280;39550;52.230;5.194;2022-09-29T08:11:51;100095.44;;;9.64;72.45
53647;BME280;39550;52.230;5.194;2022-09-29T08:14:16;100097.13;;;9.63;72.82
53647;BME280;39550;52.230;5.194;2022-09-29T08:16:41;100103.16;;;9.64;72.67
53647;BME280;39550;52.230;5.194;2022-09-29T08:19:07;100102.28;;;9.65;72.31
53647;BME280;39550;52.230;5.194;2022-09-29T08:21:32;100106.56;;;9.66;72.40
53647;BME280;39550;52.230;5.194;2022-09-29T08:24:04;100106.56;;;9.66;72.46
53647;BME280;39550;52.230;5.194;2022-09-29T08:26:35;100114.28;;;9.63;72.35
53647;BME280;39550;52.230;5.194;2022-09-29T08:29:01;100110.88;;;9.67;72.21
53647;BME280;39550;52.230;5.194;2022-09-29T08:31:27;100120.31;;;9.68;72.27
53647;BME280;39550;52.230;5.194;2022-09-29T08:33:55;100120.28;;;9.65;72.65
53647;BME280;39550;52.230;5.194;2022-09-29T08:36:22;100127.16;;;9.69;72.51
53647;BME280;39550;52.230;5.194;2022-09-29T08:38:50;100130.59;;;9.71;72.64
53647;BME280;39550;52.230;5.194;2022-09-29T08:41:27;100132.31;;;9.72;72.71
53647;BME280;39550;52.230;5.194;2022-09-29T08:44:04;100132.28;;;9.69;72.60
53647;BME280;39550;52.230;5.194;2022-09-29T08:46:39;100136.56;;;9.75;72.85
53647;BME280;39550;52.230;5.194;2022-09-29T08:49:16;100145.16;;;9.75;72.67
53647;BME280;39550;52.230;5.194;2022-09-29T08:51:47;100151.16;;;9.77;72.58
53647;BME280;39550;52.230;5.194;2022-09-29T08:54:26;100146.03;;;9.80;72.47
53647;BME280;39550;52.230;5.194;2022-09-29T08:56:54;100148.63;;;9.80;73.10
53647;BME280;39550;52.230;5.194;2022-09-29T08:59:19;100154.59;;;9.79;72.84
53647;BME280;39550;52.230;5.194;2022-09-29T09:08:14;100158.03;;;9.78;73.06
53647;BME280;39550;52.230;5.194;2022-09-29T09:16:25;100157.19;;;9.76;73.19
53647;BME280;39550;52.230;5.194;2022-09-29T09:22:19;100166.63;;;9.83;73.36
53647;BME280;39550;52.230;5.194;2022-09-29T09:25:00;100164.03;;;9.83;73.17
53647;BME280;39550;52.230;5.194;2022-09-29T09:27:41;100175.19;;;9.85;73.10
53647;BME280;39550;52.230;5.194;2022-09-29T09:30:13;100170.03;;;9.85;73.53
53647;BME280;39550;52.230;5.194;2022-09-29T09:32:46;100170.91;;;9.87;73.14
53647;BME280;39550;52.230;5.194;2022-09-29T09:38:03;100157.16;;;9.87;72.96
53647;BME280;39550;52.230;5.194;2022-09-29T09:40:39;100164.91;;;9.92;73.09
53647;BME280;39550;52.230;5.194;2022-09-29T09:43:13;100166.59;;;9.93;73.32
53647;BME280;39550;52.230;5.194;2022-09-29T09:48:28;100168.31;;;9.97;73.04
53647;BME280;39550;52.230;5.194;2022-09-29T09:50:54;100175.19;;;9.98;73.29
53647;BME280;39550;52.230;5.194;2022-09-29T09:53:34;100170.91;;;10.00;73.73
53647;BME280;39550;52.230;5.194;2022-09-29T09:59:14;100171.75;;;10.02;72.92
53647;BME280;39550;52.230;5.194;2022-09-29T10:01:18;100170.03;;;10.04;73.56
53647;BME280;39550;52.230;5.194;2022-09-29T10:03:44;100172.63;;;10.04;73.56
53647;BME280;39550;52.230;5.194;2022-09-29T10:06:09;100172.59;;;10.07;73.41
53647;BME280;39550;52.230;5.194;2022-09-29T10:08:38;100173.44;;;10.09;73.46
53647;BME280;39550;52.230;5.194;2022-09-29T10:11:20;100178.63;;;10.14;73.52
53647;BME280;39550;52.230;5.194;2022-09-29T10:13:47;100175.16;;;10.15;73.48
53647;BME280;39550;52.230;5.194;2022-09-29T10:16:18;100173.44;;;10.17;73.62
53647;BME280;39550;52.230;5.194;2022-09-29T10:18:49;100178.59;;;10.20;73.00
53647;BME280;39550;52.230;5.194;2022-09-29T10:21:38;100176.00;;;10.20;73.46
53647;BME280;39550;52.230;5.194;2022-09-29T10:24:04;100170.00;;;10.22;74.00
53647;BME280;39550;52.230;5.194;2022-09-29T10:26:39;100171.72;;;10.27;73.47
53647;BME280;39550;52.230;5.194;2022-09-29T10:34:28;100182.03;;;10.33;73.42
53647;BME280;39550;52.230;5.194;2022-09-29T10:36:57;100176.00;;;10.32;73.86
53647;BME280;39550;52.230;5.194;2022-09-29T10:39:42;100177.75;;;10.36;73.68
53647;BME280;39550;52.230;5.194;2022-09-29T10:42:31;100182.03;;;10.39;73.69
53647;BME280;39550;52.230;5.194;2022-09-29T10:45:28;100181.19;;;10.40;73.93
53647;BME280;39550;52.230;5.194;2022-09-29T10:53:02;100182.88;;;10.46;74.18
53647;BME280;39550;52.230;5.194;2022-09-29T10:55:33;100175.16;;;10.47;73.66
53647;BME280;39550;52.230;5.194;2022-09-29T10:58:27;100183.72;;;10.46;73.72
53647;BME280;39550;52.230;5.194;2022-09-29T11:01:04;100187.19;;;10.48;73.76
53647;BME280;39550;52.230;5.194;2022-09-29T11:03:32;100194.03;;;10.49;73.63
53647;BME280;39550;52.230;5.194;2022-09-29T11:06:26;100192.31;;;10.51;73.05
53647;BME280;39550;52.230;5.194;2022-09-29T11:09:03;100191.44;;;10.55;73.92
53647;BME280;39550;52.230;5.194;2022-09-29T11:11:34;100199.16;;;10.57;73.85
53647;BME280;39550;52.230;5.194;2022-09-29T11:14:00;100194.84;;;10.59;73.67
53647;BME280;39550;52.230;5.194;2022-09-29T11:16:34;100197.44;;;10.61;73.30
53647;BME280;39550;52.230;5.194;2022-09-29T11:19:09;100192.28;;;10.64;73.04
53647;BME280;39550;52.230;5.194;2022-09-29T11:27:09;100195.69;;;10.66;73.04
53647;BME280;39550;52.230;5.194;2022-09-29T11:37:44;100197.41;;;10.73;72.90
53647;BME280;39550;52.230;5.194;2022-09-29T11:40:34;100205.13;;;10.76;72.86
53647;BME280;39550;52.230;5.194;2022-09-29T11:51:39;100202.53;;;10.82;72.58
53647;BME280;39550;52.230;5.194;2022-09-29T11:54:21;100205.94;;;10.81;72.80
53647;BME280;39550;52.230;5.194;2022-09-29T11:56:59;100211.09;;;10.81;72.87
53647;BME280;39550;52.230;5.194;2022-09-29T12:02:41;100216.25;;;10.90;72.19
53647;BME280;39550;52.230;5.194;2022-09-29T12:11:23;100224.78;;;11.08;72.23
53647;BME280;39550;52.230;5.194;2022-09-29T12:16:38;100229.94;;;11.05;72.47
53647;BME280;39550;52.230;5.194;2022-09-29T12:19:10;100220.47;;;11.05;72.36
53647;BME280;39550;52.230;5.194;2022-09-29T12:21:41;100229.94;;;11.05;71.84
53647;BME280;39550;52.230;5.194;2022-09-29T12:24:13;100223.91;;;11.07;72.40
53647;BME280;39550;52.230;5.194;2022-09-29T12:26:41;100225.63;;;11.10;72.16
53647;BME280;39550;52.230;5.194;2022-09-29T12:29:30;100227.34;;;11.10;72.07
53647;BME280;39550;52.230;5.194;2022-09-29T12:32:02;100234.22;;;11.11;72.35
53647;BME280;39550;52.230;5.194;2022-09-29T12:34:52;100229.94;;;11.06;72.40
53647;BME280;39550;52.230;5.194;2022-09-29T12:37:26;100233.34;;;11.10;72.30
53647;BME280;39550;52.230;5.194;2022-09-29T12:40:03;100231.63;;;11.12;72.19
53647;BME280;39550;52.230;5.194;2022-09-29T12:43:01;100233.34;;;11.16;72.26
53647;BME280;39550;52.230;5.194;2022-09-29T12:45:32;100232.47;;;11.20;72.19
53647;BME280;39550;52.230;5.194;2022-09-29T12:50:40;100234.16;;;11.20;71.94
53647;BME280;39550;52.230;5.194;2022-09-29T12:53:14;100236.75;;;11.24;72.13
53647;BME280;39550;52.230;5.194;2022-09-29T12:58:30;100231.53;;;11.31;71.79
53647;BME280;39550;52.230;5.194;2022-09-29T13:01:03;100231.50;;;11.34;71.67
53647;BME280;39550;52.230;5.194;2022-09-29T13:03:47;100229.81;;;11.36;71.43
53647;BME280;39550;52.230;5.194;2022-09-29T13:09:22;100236.59;;;11.52;71.58
53647;BME280;39550;52.230;5.194;2022-09-29T13:28:46;100243.34;;;11.72;70.47
53647;BME280;39550;52.230;5.194;2022-09-29T13:31:18;100246.78;;;11.77;70.58
53647;BME280;39550;52.230;5.194;2022-09-29T13:33:49;100253.63;;;11.76;70.26
53647;BME280;39550;52.230;5.194;2022-09-29T13:36:27;100259.59;;;11.85;69.84
53647;BME280;39550;52.230;5.194;2022-09-29T13:38:57;100257.91;;;11.84;70.19
53647;BME280;39550;52.230;5.194;2022-09-29T13:46:38;100266.75;;;11.36;71.65
53647;BME280;39550;52.230;5.194;2022-09-29T13:54:41;100260.78;;;11.31;72.24
53647;BME280;39550;52.230;5.194;2022-09-29T13:57:21;100255.63;;;11.30;71.94
53647;BME280;39550;52.230;5.194;2022-09-29T14:10:31;100281.91;;;12.03;69.88
53647;BME280;39550;52.230;5.194;2022-09-29T14:13:04;100272.66;;;11.65;71.04
53647;BME280;39550;52.230;5.194;2022-09-29T14:15:39;100272.72;;;11.46;72.31
53647;BME280;39550;52.230;5.194;2022-09-29T14:18:29;100276.19;;;11.42;72.36
53647;BME280;39550;52.230;5.194;2022-09-29T14:21:04;100277.94;;;11.40;72.11
53647;BME280;39550;52.230;5.194;2022-09-29T14:26:43;100267.53;;;13.48;66.00
53647;BME280;39550;52.230;5.194;2022-09-29T14:29:22;100263.38;;;13.95;64.54
53647;BME280;39550;52.230;5.194;2022-09-29T14:31:48;100269.25;;;14.08;63.29
53647;BME280;39550;52.230;5.194;2022-09-29T14:34:17;100267.94;;;14.36;63.65
53647;BME280;39550;52.230;5.194;2022-09-29T14:36:43;100272.97;;;13.90;64.72
53647;BME280;39550;52.230;5.194;2022-09-29T14:39:12;100282.13;;;12.76;67.57
53647;BME280;39550;52.230;5.194;2022-09-29T14:41:41;100287.84;;;12.17;70.11
53647;BME280;39550;52.230;5.194;2022-09-29T14:44:34;100287.97;;;11.92;71.77
53647;BME280;39550;52.230;5.194;2022-09-29T14:50:53;100294.13;;;11.68;71.85
53647;BME280;39550;52.230;5.194;2022-09-29T14:54:02;100295.00;;;11.66;72.39
53647;BME280;39550;52.230;5.194;2022-09-29T14:56:48;100301.91;;;11.62;72.47
53647;BME280;39550;52.230;5.194;2022-09-29T14:59:29;100306.22;;;11.58;72.75
53647;BME280;39550;52.230;5.194;2022-09-29T15:02:17;100300.22;;;11.56;72.87
53647;BME280;39550;52.230;5.194;2022-09-29T15:04:44;100305.38;;;11.56;72.95
53647;BME280;39550;52.230;5.194;2022-09-29T15:07:12;100310.53;;;11.56;72.77
53647;BME280;39550;52.230;5.194;2022-09-29T15:09:38;100310.53;;;11.56;73.15
53647;BME280;39550;52.230;5.194;2022-09-29T15:12:14;100313.97;;;11.55;73.18
53647;BME280;39550;52.230;5.194;2022-09-29T15:14:40;100316.56;;;11.54;72.91
53647;BME280;39550;52.230;5.194;2022-09-29T15:25:33;100324.31;;;11.52;72.57
53647;BME280;39550;52.230;5.194;2022-09-29T15:30:39;100322.59;;;11.51;73.22
53647;BME280;39550;52.230;5.194;2022-09-29T15:33:22;100321.75;;;11.52;73.69
53647;BME280;39550;52.230;5.194;2022-09-29T15:35:55;100334.66;;;11.52;73.29
53647;BME280;39550;52.230;5.194;2022-09-29T15:40:58;100333.78;;;11.49;73.20
53647;BME280;39550;52.230;5.194;2022-09-29T15:43:26;100334.66;;;11.46;72.81
53647;BME280;39550;52.230;5.194;2022-09-29T15:46:01;100331.22;;;11.53;73.22
53647;BME280;39550;52.230;5.194;2022-09-29T15:48:28;100332.06;;;11.54;73.86
53647;BME280;39550;52.230;5.194;2022-09-29T15:50:55;100336.38;;;11.53;73.29